Time;durP1;ratioP1;P1;durP2;ratioP2;P2;SDS_P1;SDS_P2;PMS_P1;PMS_P2;Temp;Humidity;BMP_temperature;BMP_pressure;BME280_temperature;BME280_humidity;BME280_pressure;Samples;Min_cycle;Max_cycle;Signal;HPM_P1;HPM_P2
2023/12/17 00:01:05;;;;;;;17.70;8.25;;;;;;;1.19;100.00;102864.28;5036837;28;20076;-71
2023/12/17 00:03:30;;;;;;;18.05;8.70;;;;;;;1.20;100.00;102868.72;5036847;28;20029;-71
2023/12/17 00:05:56;;;;;;;15.13;8.50;;;;;;;1.17;100.00;102877.28;5019430;28;20036;-72
2023/12/17 00:08:22;;;;;;;18.83;9.60;;;;;;;1.14;100.00;102874.91;5004206;28;20026;-71
2023/12/17 00:10:50;;;;;;;13.85;8.18;;;;;;;1.15;100.00;102865.69;5018069;28;20084;-71
2023/12/17 00:13:16;;;;;;;18.10;8.52;;;;;;;1.14;100.00;102850.28;5017184;28;20041;-71
2023/12/17 00:15:42;;;;;;;17.98;9.43;;;;;;;1.07;100.00;102859.19;5013976;28;20112;-71
2023/12/17 00:18:07;;;;;;;17.23;8.68;;;;;;;1.03;100.00;102863.31;5041081;28;20045;-71
2023/12/17 00:20:33;;;;;;;18.20;9.00;;;;;;;1.06;100.00;102859.38;5000828;28;20389;-71
2023/12/17 00:22:59;;;;;;;22.00;8.90;;;;;;;1.01;100.00;102862.63;5033495;28;20039;-71
2023/12/17 00:25:24;;;;;;;15.93;8.63;;;;;;;0.98;100.00;102856.66;5026726;28;20036;-71
2023/12/17 00:27:49;;;;;;;20.77;9.68;;;;;;;0.99;100.00;102859.19;5003684;28;20029;-71
2023/12/17 00:30:15;;;;;;;18.58;8.85;;;;;;;0.97;100.00;102853.03;5020243;28;20048;-71
2023/12/17 00:32:41;;;;;;;18.33;9.45;;;;;;;0.96;100.00;102848.59;4985577;28;20390;-71
2023/12/17 00:35:06;;;;;;;19.63;9.32;;;;;;;0.94;100.00;102847.06;5003557;28;20029;-71
2023/12/17 00:37:32;;;;;;;19.60;9.80;;;;;;;0.90;100.00;102846.56;5016761;28;20368;-71
2023/12/17 00:39:57;;;;;;;17.70;9.23;;;;;;;0.89;100.00;102844.81;4986964;28;20068;-71
2023/12/17 00:42:22;;;;;;;20.45;9.43;;;;;;;0.90;100.00;102843.81;5019569;28;20025;-71
2023/12/17 00:44:48;;;;;;;18.80;9.43;;;;;;;0.86;100.00;102837.84;5003229;28;20036;-71
2023/12/17 00:47:13;;;;;;;19.48;9.43;;;;;;;0.90;100.00;102830.13;5003343;28;20075;-71
2023/12/17 00:49:39;;;;;;;20.52;8.98;;;;;;;0.88;100.00;102823.97;5019844;28;20437;-71
2023/12/17 00:52:05;;;;;;;22.23;10.20;;;;;;;0.84;100.00;102828.09;4993239;28;20036;-71
2023/12/17 00:54:30;;;;;;;22.02;10.00;;;;;;;0.81;100.00;102822.97;5019726;28;20508;-71
2023/12/17 00:56:55;;;;;;;17.20;9.10;;;;;;;0.80;100.00;102824.00;5003450;28;20036;-71
2023/12/17 00:59:21;;;;;;;19.05;9.57;;;;;;;0.80;100.00;102813.03;4987269;28;20029;-71
2023/12/17 01:01:46;;;;;;;17.00;10.05;;;;;;;0.77;100.00;102807.94;5002879;28;20028;-71
2023/12/17 01:04:12;;;;;;;17.83;9.60;;;;;;;0.74;100.00;102814.59;5019473;28;20037;-71
2023/12/17 01:06:37;;;;;;;20.40;9.98;;;;;;;0.74;100.00;102819.22;4997255;28;20036;-71
2023/12/17 01:09:03;;;;;;;17.73;9.38;;;;;;;0.74;100.00;102805.53;4999806;28;20025;-71
2023/12/17 01:11:28;;;;;;;21.13;9.98;;;;;;;0.71;100.00;102814.09;5019315;28;20112;-71
2023/12/17 01:13:54;;;;;;;20.35;10.18;;;;;;;0.71;100.00;102811.34;5003070;28;20037;-71
2023/12/17 01:16:19;;;;;;;18.50;9.20;;;;;;;0.65;100.00;102797.34;5053810;28;20163;-71
2023/12/17 01:18:45;;;;;;;16.70;9.00;;;;;;;0.65;100.00;102800.06;5017096;28;20042;-71
2023/12/17 01:21:10;;;;;;;19.77;9.95;;;;;;;0.68;100.00;102790.69;5019215;28;20026;-71
2023/12/17 01:23:37;;;;;;;16.80;9.13;;;;;;;0.68;100.00;102795.28;5002195;28;20029;-71
2023/12/17 01:26:02;;;;;;;18.17;9.20;;;;;;;0.65;100.00;102789.13;5000075;28;20119;-71
2023/12/17 01:28:28;;;;;;;17.98;9.20;;;;;;;0.62;100.00;102785.91;4988733;28;20060;-71
2023/12/17 01:30:53;;;;;;;19.20;9.23;;;;;;;0.59;100.00;102778.91;4988358;28;20033;-71
2023/12/17 01:33:19;;;;;;;20.38;9.77;;;;;;;0.61;100.00;102774.13;5013571;28;20037;-71
2023/12/17 01:35:44;;;;;;;16.70;8.80;;;;;;;0.57;100.00;102775.47;5018610;28;20035;-71
2023/12/17 01:38:10;;;;;;;16.60;8.98;;;;;;;0.56;100.00;102781.13;5018004;28;20054;-71
2023/12/17 01:40:35;;;;;;;17.10;9.48;;;;;;;0.56;100.00;102781.97;5018796;28;20028;-71
2023/12/17 01:43:03;;;;;;;16.13;8.80;;;;;;;0.52;100.00;102777.88;4986332;28;20025;-71
2023/12/17 01:45:28;;;;;;;15.32;8.55;;;;;;;0.51;100.00;102781.63;5019010;28;20052;-71
2023/12/17 01:47:54;;;;;;;19.58;8.35;;;;;;;0.48;100.00;102773.78;4997519;28;20043;-71
2023/12/17 01:50:19;;;;;;;16.85;8.35;;;;;;;0.44;100.00;102784.19;5021237;28;20024;-71
2023/12/17 01:52:45;;;;;;;15.77;8.30;;;;;;;0.47;100.00;102771.19;5000155;28;20038;-71
2023/12/17 01:55:10;;;;;;;17.92;8.80;;;;;;;0.46;100.00;102773.09;4981375;28;20034;-71
2023/12/17 01:57:46;;;;;;;17.45;8.73;;;;;;;0.47;100.00;102761.13;5034714;28;20025;-71
2023/12/17 02:00:12;;;;;;;17.38;9.32;;;;;;;0.43;100.00;102767.97;5008377;28;20120;-71
2023/12/17 02:02:37;;;;;;;14.32;8.25;;;;;;;0.44;100.00;102762.31;5024358;28;20390;-71
2023/12/17 02:05:05;;;;;;;17.27;9.80;;;;;;;0.43;100.00;102760.63;5015039;28;20041;-71
2023/12/17 02:07:34;;;;;;;18.15;9.50;;;;;;;0.43;100.00;102762.50;5036705;28;20424;-71
2023/12/17 02:09:59;;;;;;;16.95;9.48;;;;;;;0.41;100.00;102761.81;5009479;28;20491;-71
2023/12/17 02:12:29;;;;;;;22.23;10.02;;;;;;;0.40;100.00;102755.50;5000395;28;20100;-71
2023/12/17 02:14:54;;;;;;;18.08;9.30;;;;;;;0.43;100.00;102760.63;5029347;28;20037;-71
2023/12/17 02:17:27;;;;;;;18.35;10.75;;;;;;;0.41;100.00;102750.88;5033761;28;20025;-71
2023/12/17 02:19:52;;;;;;;18.98;9.90;;;;;;;0.38;100.00;102749.34;5045491;28;20135;-71
2023/12/17 02:22:18;;;;;;;23.17;9.98;;;;;;;0.41;100.00;102745.41;5034642;28;20029;-71
2023/12/17 02:24:43;;;;;;;18.67;10.77;;;;;;;0.37;100.00;102749.53;5035160;28;20022;-71
2023/12/17 02:27:09;;;;;;;21.17;9.90;;;;;;;0.40;100.00;102743.72;5018456;28;20029;-71
2023/12/17 02:29:34;;;;;;;17.70;10.57;;;;;;;0.40;100.00;102738.25;5002023;28;20033;-71
2023/12/17 02:32:00;;;;;;;21.33;9.65;;;;;;;0.38;100.00;102743.88;5002154;28;20037;-71
2023/12/17 02:34:25;;;;;;;21.23;10.60;;;;;;;0.43;100.00;102743.34;5018167;28;20540;-71
2023/12/17 02:36:51;;;;;;;21.55;10.60;;;;;;;0.43;100.00;102744.22;5001563;28;20025;-71
2023/12/17 02:39:16;;;;;;;20.65;10.43;;;;;;;0.40;100.00;102741.81;5001838;28;20068;-71
2023/12/17 02:41:42;;;;;;;23.70;11.02;;;;;;;0.41;100.00;102740.78;5018381;28;20029;-71
2023/12/17 02:44:07;;;;;;;21.25;10.55;;;;;;;0.39;100.00;102736.50;5001960;28;20026;-71
2023/12/17 02:46:32;;;;;;;19.13;9.77;;;;;;;0.38;100.00;102741.13;5003639;28;20034;-71
2023/12/17 02:48:58;;;;;;;20.92;10.40;;;;;;;0.38;100.00;102735.66;5022389;28;20539;-71
2023/12/17 02:51:24;;;;;;;21.70;9.93;;;;;;;0.40;100.00;102727.31;4985586;28;20037;-71
2023/12/17 02:53:49;;;;;;;19.25;9.70;;;;;;;0.39;100.00;102731.03;5005791;28;20036;-71
2023/12/17 02:56:15;;;;;;;19.45;10.07;;;;;;;0.37;100.00;102722.19;4989419;28;20029;-71
2023/12/17 02:58:40;;;;;;;20.17;9.90;;;;;;;0.39;100.00;102717.38;5038359;28;20033;-71
2023/12/17 03:01:05;;;;;;;17.67;9.60;;;;;;;0.37;100.00;102714.84;4989025;28;20414;-71
2023/12/17 03:03:31;;;;;;;22.25;10.50;;;;;;;0.37;100.00;102716.72;5021929;28;20033;-71
2023/12/17 03:05:56;;;;;;;21.65;10.52;;;;;;;0.37;100.00;102717.56;5001649;28;20029;-71
2023/12/17 03:08:22;;;;;;;21.85;11.60;;;;;;;0.35;100.00;102707.81;5013813;28;20402;-71
2023/12/17 03:10:47;;;;;;;21.13;10.40;;;;;;;0.35;100.00;102708.69;4999272;28;20034;-71
2023/12/17 03:13:13;;;;;;;22.25;11.50;;;;;;;0.32;100.00;102709.03;5030055;28;20389;-71
2023/12/17 03:15:38;;;;;;;22.45;11.10;;;;;;;0.35;100.00;102714.16;5040045;28;20029;-71
2023/12/17 03:18:04;;;;;;;21.30;10.27;;;;;;;0.33;100.00;102709.88;5038186;28;20053;-71
2023/12/17 03:20:29;;;;;;;21.38;10.50;;;;;;;0.35;100.00;102708.69;5039158;28;20095;-71
2023/12/17 03:22:55;;;;;;;21.55;10.88;;;;;;;0.33;100.00;102701.66;5038116;28;20470;-71
2023/12/17 03:25:21;;;;;;;18.58;10.15;;;;;;;0.32;100.00;102703.56;5005119;28;20083;-71
2023/12/17 03:27:46;;;;;;;20.55;10.63;;;;;;;0.33;100.00;102704.41;4985363;28;20479;-71
2023/12/17 03:30:12;;;;;;;20.20;9.95;;;;;;;0.28;100.00;102710.41;5034004;28;20036;-71
2023/12/17 03:32:37;;;;;;;22.27;10.73;;;;;;;0.32;100.00;102702.72;5039071;28;20658;-71
2023/12/17 03:35:03;;;;;;;22.27;10.57;;;;;;;0.35;100.00;102702.34;5004351;28;20399;-71
2023/12/17 03:37:28;;;;;;;21.50;10.50;;;;;;;0.36;100.00;102695.84;5021452;28;20034;-71
2023/12/17 03:39:54;;;;;;;23.38;10.90;;;;;;;0.36;100.00;102694.00;5020850;28;20041;-71
2023/12/17 03:42:19;;;;;;;22.48;11.18;;;;;;;0.36;100.00;102684.91;5037593;28;20029;-71
2023/12/17 03:44:46;;;;;;;25.15;10.98;;;;;;;0.34;100.00;102690.59;5000690;28;20734;-71
2023/12/17 03:47:11;;;;;;;24.10;11.23;;;;;;;0.36;100.00;102676.72;5021218;28;20112;-71
2023/12/17 03:49:37;;;;;;;23.75;11.25;;;;;;;0.38;100.00;102674.69;5037275;28;20068;-71
2023/12/17 03:52:03;;;;;;;23.17;10.75;;;;;;;0.38;100.00;102677.41;5023698;28;20040;-71
2023/12/17 03:54:28;;;;;;;23.45;10.88;;;;;;;0.38;100.00;102674.69;4988346;28;20040;-71
2023/12/17 03:56:54;;;;;;;24.08;11.15;;;;;;;0.43;100.00;102664.06;5004279;28;20034;-71
2023/12/17 03:59:19;;;;;;;23.60;11.20;;;;;;;0.43;100.00;102662.19;5004362;28;20029;-71
2023/12/17 04:01:46;;;;;;;23.15;11.15;;;;;;;0.43;100.00;102654.00;5037443;28;20021;-71
2023/12/17 04:04:11;;;;;;;24.17;11.43;;;;;;;0.48;100.00;102648.00;5036842;28;20026;-71
2023/12/17 04:06:37;;;;;;;25.60;12.07;;;;;;;0.51;100.00;102653.13;5023796;28;20584;-71
2023/12/17 04:09:03;;;;;;;24.70;11.85;;;;;;;0.51;100.00;102642.19;5050808;28;20060;-71
2023/12/17 04:11:29;;;;;;;22.30;11.63;;;;;;;0.51;100.00;102642.19;5037104;28;20030;-71
2023/12/17 04:13:54;;;;;;;24.00;11.43;;;;;;;0.52;100.00;102643.88;4987527;28;20056;-71
2023/12/17 04:16:20;;;;;;;24.10;11.70;;;;;;;0.55;100.00;102642.69;5010104;28;20036;-71
2023/12/17 04:18:45;;;;;;;25.35;11.43;;;;;;;0.56;100.00;102647.13;5016492;28;20042;-71
2023/12/17 04:21:11;;;;;;;26.27;11.32;;;;;;;0.57;100.00;102651.56;5000675;28;20041;-71
2023/12/17 04:23:36;;;;;;;27.08;11.90;;;;;;;0.56;100.00;102634.31;5014814;28;20088;-71
2023/12/17 04:26:02;;;;;;;24.75;12.57;;;;;;;0.59;100.00;102642.16;5012253;28;20048;-71
2023/12/17 04:28:27;;;;;;;26.27;11.90;;;;;;;0.58;100.00;102640.44;5003794;28;20030;-71
2023/12/17 04:30:53;;;;;;;23.95;12.93;;;;;;;0.63;100.00;102642.66;5020264;28;20034;-71
2023/12/17 04:33:18;;;;;;;23.13;11.02;;;;;;;0.68;100.00;102644.88;5020074;28;20037;-71
2023/12/17 04:35:44;;;;;;;27.02;12.52;;;;;;;0.63;100.00;102640.78;5016668;28;20026;-71
2023/12/17 04:38:09;;;;;;;22.95;11.73;;;;;;;0.62;100.00;102644.53;5015410;28;20040;-71
2023/12/17 04:40:34;;;;;;;23.95;11.63;;;;;;;0.62;100.00;102633.59;4987540;28;20025;-71
2023/12/17 04:43:00;;;;;;;28.60;13.05;;;;;;;0.61;100.00;102637.38;5003584;28;20091;-71
2023/12/17 04:45:25;;;;;;;27.42;14.15;;;;;;;0.59;100.00;102623.03;5019957;28;20052;-71
2023/12/17 04:47:51;;;;;;;23.08;12.30;;;;;;;0.60;100.00;102616.50;5019689;28;20032;-71
2023/12/17 04:50:17;;;;;;;27.13;12.73;;;;;;;0.62;100.00;102627.28;5033410;28;20030;-71
2023/12/17 04:52:42;;;;;;;23.55;12.32;;;;;;;0.58;100.00;102626.75;5003538;28;20489;-71
2023/12/17 04:55:08;;;;;;;26.52;12.52;;;;;;;0.57;100.00;102621.50;5036470;28;20060;-71
2023/12/17 04:57:33;;;;;;;23.48;11.73;;;;;;;0.59;100.00;102616.72;5012549;28;20036;-71
2023/12/17 05:00:01;;;;;;;22.55;11.80;;;;;;;0.52;100.00;102616.53;5033293;28;20091;-71
2023/12/17 05:02:26;;;;;;;21.65;11.05;;;;;;;0.51;100.00;102617.56;5024680;28;20057;-71
2023/12/17 05:04:52;;;;;;;26.23;12.27;;;;;;;0.50;100.00;102617.75;4995786;28;20033;-71
2023/12/17 05:07:18;;;;;;;21.73;11.93;;;;;;;0.45;100.00;102621.03;5013856;28;20044;-71
2023/12/17 05:09:43;;;;;;;23.33;11.25;;;;;;;0.43;100.00;102620.34;4996131;28;20097;-71
2023/12/17 05:12:09;;;;;;;24.63;12.32;;;;;;;0.40;100.00;102617.97;5033499;28;20519;-71
2023/12/17 05:14:35;;;;;;;20.40;11.13;;;;;;;0.40;100.00;102620.69;4996960;28;20042;-71
2023/12/17 05:17:00;;;;;;;21.23;10.75;;;;;;;0.38;100.00;102620.84;5013451;28;20041;-71
2023/12/17 05:19:26;;;;;;;20.98;10.85;;;;;;;0.36;100.00;102614.72;5008760;28;20056;-71
2023/12/17 05:21:51;;;;;;;28.20;11.43;;;;;;;0.37;100.00;102619.16;4993828;28;20393;-71
2023/12/17 05:24:17;;;;;;;21.52;11.23;;;;;;;0.29;100.00;102621.91;4999096;28;20037;-71
2023/12/17 05:26:42;;;;;;;19.60;11.63;;;;;;;0.29;100.00;102623.78;4998447;28;20040;-71
2023/12/17 05:29:08;;;;;;;24.63;11.55;;;;;;;0.27;100.00;102613.03;4997821;28;20048;-71
2023/12/17 05:31:34;;;;;;;23.52;11.55;;;;;;;0.23;100.00;102622.63;5012194;28;20434;-71
2023/12/17 05:33:59;;;;;;;19.98;11.18;;;;;;;0.24;100.00;102618.00;4976819;28;20056;-71
2023/12/17 05:36:25;;;;;;;22.70;11.68;;;;;;;0.20;100.00;102612.88;4995610;28;20033;-71
2023/12/17 05:38:50;;;;;;;21.80;10.75;;;;;;;0.17;100.00;102624.16;4997653;28;20067;-71
2023/12/17 05:41:16;;;;;;;22.67;11.55;;;;;;;0.15;100.00;102620.75;5013823;28;20026;-71
2023/12/17 05:43:41;;;;;;;18.98;10.52;;;;;;;0.09;100.00;102624.16;5001265;28;20657;-71
2023/12/17 05:46:07;;;;;;;21.05;10.77;;;;;;;0.09;100.00;102626.06;5004936;28;20048;-71
2023/12/17 05:48:33;;;;;;;20.98;11.07;;;;;;;0.11;100.00;102622.13;5025824;28;20103;-71
2023/12/17 05:50:58;;;;;;;22.45;10.98;;;;;;;0.05;100.00;102620.06;5018007;28;20048;-71
2023/12/17 05:53:24;;;;;;;20.38;10.77;;;;;;;0.03;100.00;102626.72;4997403;28;20037;-71
2023/12/17 05:55:49;;;;;;;24.80;11.32;;;;;;;0.02;100.00;102620.41;5039924;28;20029;-71
2023/12/17 05:58:15;;;;;;;18.55;10.20;;;;;;;0.01;100.00;102615.13;4992324;28;20026;-71
2023/12/17 06:00:40;;;;;;;21.90;10.75;;;;;;;0.01;100.00;102629.66;5021688;28;20021;-71
2023/12/17 06:03:07;;;;;;;23.33;11.10;;;;;;;-0.02;100.00;102622.66;4996157;28;20540;-71
2023/12/17 06:05:32;;;;;;;22.85;10.40;;;;;;;-0.03;100.00;102617.34;5028862;28;20057;-71
2023/12/17 06:07:58;;;;;;;21.05;10.38;;;;;;;-0.03;100.00;102628.25;5017096;28;20371;-71
2023/12/17 06:10:23;;;;;;;20.90;10.02;;;;;;;-0.05;100.00;102628.47;5044351;28;20029;-71
2023/12/17 06:12:49;;;;;;;27.08;10.57;;;;;;;-0.05;100.00;102630.34;4994439;28;20033;-71
2023/12/17 06:15:14;;;;;;;19.98;11.23;;;;;;;-0.12;100.00;102624.69;5017304;28;20056;-71
2023/12/17 06:17:42;;;;;;;18.63;10.65;;;;;;;-0.12;100.00;102623.84;4996461;28;20033;-71
2023/12/17 06:20:08;;;;;;;22.02;11.32;;;;;;;-0.14;100.00;102634.06;4998750;28;20038;-71
2023/12/17 06:22:34;;;;;;;19.42;10.63;;;;;;;-0.19;100.00;102631.88;4982581;28;20039;-71
2023/12/17 06:24:59;;;;;;;16.85;10.27;;;;;;;-0.24;100.00;102639.72;5008377;28;20033;-71
2023/12/17 06:27:25;;;;;;;18.67;10.10;;;;;;;-0.25;100.00;102629.84;5022356;28;20033;-71
2023/12/17 06:29:52;;;;;;;19.05;10.07;;;;;;;-0.27;100.00;102635.47;5005890;28;20040;-71
2023/12/17 06:32:17;;;;;;;20.48;10.70;;;;;;;-0.27;100.00;102640.91;5035691;28;20037;-71
2023/12/17 06:34:43;;;;;;;24.13;10.70;;;;;;;-0.29;100.00;102640.22;5012357;28;20059;-71
2023/12/17 06:37:10;;;;;;;18.80;9.90;;;;;;;-0.31;100.00;102642.25;4986348;28;20561;-71
2023/12/17 06:39:36;;;;;;;22.45;10.35;;;;;;;-0.33;100.00;102657.13;5016537;28;20444;-71
2023/12/17 06:42:01;;;;;;;22.95;10.65;;;;;;;-0.37;100.00;102650.28;5022430;28;20033;-71
2023/12/17 06:44:27;;;;;;;19.48;10.52;;;;;;;-0.41;100.00;102652.53;4989181;28;20025;-71
2023/12/17 06:46:52;;;;;;;20.73;9.88;;;;;;;-0.44;100.00;102652.84;5022372;28;20034;-71
2023/12/17 06:49:18;;;;;;;19.38;10.20;;;;;;;-0.48;100.00;102646.00;4997374;28;20026;-71
2023/12/17 06:51:44;;;;;;;21.10;10.75;;;;;;;-0.43;100.00;102653.72;5008386;28;20034;-71
2023/12/17 06:54:09;;;;;;;21.70;10.65;;;;;;;-0.47;100.00;102658.66;5005275;28;20024;-71
2023/12/17 06:56:35;;;;;;;22.63;10.80;;;;;;;-0.48;100.00;102656.94;5005782;28;20033;-71
2023/12/17 06:59:01;;;;;;;20.60;10.02;;;;;;;-0.51;100.00;102657.28;5005623;28;20022;-71
2023/12/17 07:01:26;;;;;;;18.35;10.18;;;;;;;-0.54;100.00;102654.88;5005678;28;20048;-71
2023/12/17 07:03:52;;;;;;;21.48;11.00;;;;;;;-0.54;100.00;102649.41;5021565;28;20608;-71
2023/12/17 07:06:17;;;;;;;20.55;10.80;;;;;;;-0.57;100.00;102652.50;5021724;28;20029;-71
2023/12/17 07:08:43;;;;;;;19.83;10.55;;;;;;;-0.54;100.00;102657.63;4989015;28;20037;-71
2023/12/17 07:11:09;;;;;;;20.80;10.32;;;;;;;-0.60;100.00;102655.56;5021764;28;20405;-71
2023/12/17 07:13:34;;;;;;;21.50;10.68;;;;;;;-0.62;100.00;102635.75;5033634;28;20025;-71
2023/12/17 07:16:00;;;;;;;19.73;11.45;;;;;;;-0.66;100.00;102645.31;5011553;28;20505;-71
2023/12/17 07:18:26;;;;;;;22.08;10.85;;;;;;;-0.66;100.00;102648.91;5037094;28;20069;-71
2023/12/17 07:20:51;;;;;;;18.50;10.80;;;;;;;-0.70;100.00;102642.94;5037628;28;20030;-71
2023/12/17 07:23:17;;;;;;;21.60;10.63;;;;;;;-0.72;100.00;102642.22;5021407;28;20037;-71
2023/12/17 07:25:42;;;;;;;18.65;10.18;;;;;;;-0.70;100.00;102645.66;5004937;28;20478;-71
2023/12/17 07:28:08;;;;;;;21.83;11.07;;;;;;;-0.71;100.00;102652.13;5037672;28;20040;-71
2023/12/17 07:30:35;;;;;;;19.15;10.48;;;;;;;-0.76;100.00;102649.03;5021105;28;20029;-71
2023/12/17 07:33:00;;;;;;;18.35;10.82;;;;;;;-0.77;100.00;102650.06;5004504;28;20030;-71
2023/12/17 07:35:26;;;;;;;22.92;11.15;;;;;;;-0.75;100.00;102658.09;5001495;28;20067;-71
2023/12/17 07:37:51;;;;;;;20.30;11.05;;;;;;;-0.78;100.00;102667.47;5030857;28;20029;-71
2023/12/17 07:40:17;;;;;;;18.02;10.75;;;;;;;-0.78;100.00;102670.19;4988655;28;20022;-71
2023/12/17 07:42:42;;;;;;;18.75;10.70;;;;;;;-0.77;100.00;102671.03;4987724;28;20033;-71
2023/12/17 07:45:08;;;;;;;22.77;11.05;;;;;;;-0.77;100.00;102668.31;5020898;28;20041;-71
2023/12/17 07:47:34;;;;;;;21.05;10.68;;;;;;;-0.77;100.00;102677.34;5004850;28;20080;-71
2023/12/17 07:49:59;;;;;;;19.27;10.32;;;;;;;-0.74;100.00;102671.56;5022817;28;20025;-71
2023/12/17 07:52:25;;;;;;;25.23;11.52;;;;;;;-0.72;100.00;102677.72;4998697;28;20029;-71
2023/12/17 07:54:52;;;;;;;21.60;11.00;;;;;;;-0.67;100.00;102666.28;5004600;28;20530;-71
2023/12/17 07:57:19;;;;;;;20.60;11.02;;;;;;;-0.66;100.00;102665.28;5004889;28;20129;-71
2023/12/17 07:59:44;;;;;;;23.73;11.52;;;;;;;-0.59;100.00;102676.38;5037190;28;20045;-71
2023/12/17 08:02:10;;;;;;;21.83;10.70;;;;;;;-0.55;100.00;102675.03;5004440;28;20030;-71
2023/12/17 08:04:37;;;;;;;20.10;10.75;;;;;;;-0.50;100.00;102668.03;5003831;28;20646;-71
2023/12/17 08:07:03;;;;;;;22.50;11.88;;;;;;;-0.46;100.00;102674.00;5020345;28;20026;-71
2023/12/17 08:09:28;;;;;;;23.48;11.23;;;;;;;-0.39;100.00;102672.31;5020974;28;20025;-71
2023/12/17 08:11:54;;;;;;;19.38;12.05;;;;;;;-0.35;100.00;102678.28;5004151;28;20049;-71
2023/12/17 08:14:20;;;;;;;22.27;11.95;;;;;;;-0.31;100.00;102680.50;5005339;28;20040;-71
2023/12/17 08:16:45;;;;;;;20.45;11.00;;;;;;;-0.27;100.00;102689.22;5004861;28;20386;-71
2023/12/17 08:19:11;;;;;;;21.77;11.85;;;;;;;-0.22;100.00;102695.03;5003106;28;20060;-71
2023/12/17 08:21:36;;;;;;;25.33;12.23;;;;;;;-0.17;100.00;102691.78;4987699;28;20029;-71
2023/12/17 08:24:02;;;;;;;23.92;11.75;;;;;;;-0.17;100.00;102686.31;5000724;28;20470;-71
2023/12/17 08:26:27;;;;;;;19.83;11.32;;;;;;;-0.08;100.00;102685.31;5008829;28;20025;-71
2023/12/17 08:28:53;;;;;;;20.88;13.02;;;;;;;-0.02;100.00;102681.91;5040596;28;20037;-71
2023/12/17 08:31:19;;;;;;;22.58;12.52;;;;;;;0.01;100.00;102694.38;5020101;28;20040;-71
2023/12/17 08:33:50;;;;;;;21.02;12.70;;;;;;;0.02;100.00;102696.06;5020304;28;20034;-71
2023/12/17 08:36:16;;;;;;;19.02;12.85;;;;;;;0.05;100.00;102695.72;5016653;28;20026;-71
2023/12/17 08:38:45;;;;;;;23.55;12.65;;;;;;;0.07;100.00;102693.66;5036810;28;20038;-71
2023/12/17 08:41:11;;;;;;;20.98;13.27;;;;;;;0.11;100.00;102695.91;4988379;28;20120;-71
2023/12/17 08:43:37;;;;;;;20.70;12.73;;;;;;;0.16;100.00;102692.63;5002662;28;20489;-71
2023/12/17 08:46:02;;;;;;;23.35;13.75;;;;;;;0.17;100.00;102683.44;5003820;28;20037;-71
2023/12/17 08:48:28;;;;;;;20.85;13.57;;;;;;;0.20;100.00;102681.19;4987568;28;20108;-72
2023/12/17 08:50:54;;;;;;;22.30;13.70;;;;;;;0.22;100.00;102681.88;5006108;28;20037;-72
2023/12/17 08:53:22;;;;;;;19.55;13.32;;;;;;;0.24;100.00;102684.44;4987191;28;20367;-72
2023/12/17 08:55:49;;;;;;;19.25;13.20;;;;;;;0.27;100.00;102688.69;5004404;28;20240;-72
2023/12/17 08:58:15;;;;;;;21.83;13.52;;;;;;;0.30;100.00;102680.16;5003510;28;20029;-71
2023/12/17 09:00:41;;;;;;;22.02;14.30;;;;;;;0.33;100.00;102677.91;4997070;28;20026;-72
2023/12/17 09:03:06;;;;;;;22.15;14.77;;;;;;;0.35;100.00;102683.22;5003465;28;20032;-72
2023/12/17 09:05:32;;;;;;;20.05;14.52;;;;;;;0.35;100.00;102675.88;5001652;28;20422;-72
2023/12/17 09:07:57;;;;;;;20.10;13.75;;;;;;;0.39;100.00;102682.72;5019464;28;20025;-72
2023/12/17 09:10:24;;;;;;;21.13;14.68;;;;;;;0.41;100.00;102679.78;5003294;28;20025;-72
2023/12/17 09:12:50;;;;;;;21.38;14.43;;;;;;;0.41;100.00;102682.53;5019474;28;20030;-72
2023/12/17 09:15:18;;;;;;;19.80;14.13;;;;;;;0.40;100.00;102684.41;5000581;28;20032;-71
2023/12/17 09:17:44;;;;;;;23.63;14.38;;;;;;;0.42;100.00;102684.25;4999463;28;20034;-72
2023/12/17 09:20:11;;;;;;;22.27;14.23;;;;;;;0.44;100.00;102695.84;5012912;28;20042;-72
2023/12/17 09:22:37;;;;;;;21.67;14.10;;;;;;;0.43;100.00;102678.59;5052266;28;20060;-72
2023/12/17 09:25:02;;;;;;;20.40;13.45;;;;;;;0.45;100.00;102678.44;4986586;28;20056;-72
2023/12/17 09:27:28;;;;;;;21.95;13.77;;;;;;;0.50;100.00;102680.63;4983378;28;20028;-72
2023/12/17 09:29:53;;;;;;;21.40;14.15;;;;;;;0.53;100.00;102674.81;5002643;28;20033;-72
2023/12/17 09:32:19;;;;;;;22.00;14.77;;;;;;;0.54;100.00;102684.72;5035725;28;20087;-72
2023/12/17 09:34:44;;;;;;;20.48;13.82;;;;;;;0.56;100.00;102683.53;5018907;28;20032;-72
2023/12/17 09:37:10;;;;;;;22.08;14.85;;;;;;;0.58;100.00;102684.19;5002895;28;20029;-72
2023/12/17 09:39:36;;;;;;;21.27;14.40;;;;;;;0.62;100.00;102688.31;5002713;28;20029;-72
2023/12/17 09:42:01;;;;;;;20.88;14.05;;;;;;;0.64;100.00;102686.25;4986251;28;20025;-72
2023/12/17 09:44:27;;;;;;;20.90;14.20;;;;;;;0.65;100.00;102677.00;5017391;28;20052;-72
2023/12/17 09:46:52;;;;;;;22.08;15.75;;;;;;;0.71;100.00;102677.34;4981687;28;20033;-72
2023/12/17 09:49:18;;;;;;;20.27;14.20;;;;;;;0.74;100.00;102679.72;4985327;28;20368;-72
2023/12/17 09:51:46;;;;;;;22.90;14.52;;;;;;;0.77;100.00;102671.16;5004016;28;20038;-71
2023/12/17 09:54:15;;;;;;;21.88;15.48;;;;;;;0.82;100.00;102675.06;5000511;28;20033;-72
2023/12/17 09:56:40;;;;;;;21.00;15.00;;;;;;;0.85;100.00;102676.59;5010913;28;20414;-72
2023/12/17 09:59:06;;;;;;;22.95;15.55;;;;;;;0.89;100.00;102672.47;4984175;28;20088;-72
2023/12/17 10:01:31;;;;;;;28.17;15.38;;;;;;;0.91;100.00;102673.16;5002340;28;20029;-72
2023/12/17 10:03:57;;;;;;;22.90;15.00;;;;;;;0.97;100.00;102668.84;5018246;28;20037;-72
2023/12/17 10:06:22;;;;;;;21.25;15.18;;;;;;;1.02;100.00;102664.56;4985589;28;20034;-72
2023/12/17 10:08:48;;;;;;;20.67;14.60;;;;;;;1.06;100.00;102674.13;5002257;28;20025;-72
2023/12/17 10:11:18;;;;;;;20.27;13.80;;;;;;;1.10;100.00;102670.00;4985772;28;20041;-72
2023/12/17 10:13:44;;;;;;;20.10;13.88;;;;;;;1.16;100.00;102675.78;5014322;28;20120;-72
2023/12/17 10:16:09;;;;;;;21.08;14.30;;;;;;;1.20;100.00;102679.84;5009336;28;20037;-72
2023/12/17 10:18:36;;;;;;;21.40;14.20;;;;;;;1.25;100.00;102680.19;5017299;28;20034;-72
2023/12/17 10:21:04;;;;;;;18.45;13.68;;;;;;;1.32;100.00;102678.44;5002124;28;20038;-72
2023/12/17 10:23:45;;;;;;;23.15;15.10;;;;;;;1.34;100.00;102677.22;5017761;28;20025;-72
2023/12/17 10:26:11;;;;;;;18.60;13.00;;;;;;;1.41;100.00;102674.63;5026930;28;20088;-72
2023/12/17 10:28:36;;;;;;;22.65;15.85;;;;;;;1.44;100.00;102676.97;5027377;28;20045;-72
2023/12/17 10:31:02;;;;;;;20.83;14.77;;;;;;;1.51;100.00;102677.97;5028083;28;20485;-72
2023/12/17 10:33:28;;;;;;;19.42;14.02;;;;;;;1.55;100.00;102679.31;5059170;28;20026;-72
2023/12/17 10:35:53;;;;;;;21.25;15.15;;;;;;;1.61;100.00;102671.41;5007970;28;20111;-72
2023/12/17 10:38:19;;;;;;;22.75;14.90;;;;;;;1.66;100.00;102668.97;5012230;28;20029;-72
2023/12/17 10:40:44;;;;;;;21.45;14.27;;;;;;;1.67;100.00;102676.16;5011988;28;20489;-72
2023/12/17 10:43:12;;;;;;;20.27;14.45;;;;;;;1.70;100.00;102667.56;5026346;28;20545;-72
2023/12/17 10:45:38;;;;;;;20.38;14.63;;;;;;;1.73;100.00;102668.06;5010056;28;20029;-72
2023/12/17 10:48:04;;;;;;;20.75;14.32;;;;;;;1.78;100.00;102667.50;4994208;28;20133;-72
2023/12/17 10:50:29;;;;;;;19.52;13.80;;;;;;;1.83;100.00;102670.56;5029286;28;20124;-72
2023/12/17 10:52:55;;;;;;;19.40;13.57;;;;;;;1.85;100.00;102665.75;5018789;28;20037;-72
2023/12/17 10:55:22;;;;;;;20.65;13.65;;;;;;;1.85;100.00;102660.28;5010583;28;20466;-72
2023/12/17 10:58:03;;;;;;;19.48;13.63;;;;;;;1.88;100.00;102662.63;5010906;28;20026;-72
2023/12/17 11:00:30;;;;;;;20.55;14.77;;;;;;;1.90;100.00;102660.56;4996229;28;20557;-72
2023/12/17 11:03:02;;;;;;;22.23;15.13;;;;;;;1.94;100.00;102667.38;4992432;28;20037;-72